createdAt,value
2017-09-19T00:00:29.817Z,81.80
2017-09-19T00:02:57.282Z,81.80
2017-09-19T00:05:24.731Z,82.00
2017-09-19T00:07:52.206Z,82.10
2017-09-19T00:10:19.659Z,82.00
2017-09-19T00:12:47.108Z,82.00
2017-09-19T00:15:14.580Z,82.00
2017-09-19T00:17:42.022Z,82.10
2017-09-19T00:20:09.500Z,82.10
2017-09-19T00:22:36.956Z,82.20
2017-09-19T00:25:04.417Z,82.30
2017-09-19T00:27:31.886Z,82.30
2017-09-19T00:29:59.393Z,82.20
2017-09-19T00:32:26.862Z,82.30
2017-09-19T00:34:54.325Z,82.20
2017-09-19T00:37:21.803Z,82.10
2017-09-19T00:39:49.244Z,82.20
2017-09-19T00:42:16.706Z,82.20
2017-09-19T00:44:44.165Z,82.20
2017-09-19T00:47:11.639Z,82.20
2017-09-19T00:49:39.089Z,83.00
2017-09-19T00:52:06.649Z,82.30
2017-09-19T00:54:34.100Z,82.40
2017-09-19T00:57:01.584Z,83.00
2017-09-19T00:59:29.019Z,82.30
2017-09-19T01:01:56.473Z,82.30
2017-09-19T01:04:23.969Z,82.30
2017-09-19T01:06:51.430Z,82.30
2017-09-19T01:09:18.901Z,82.30
2017-09-19T01:11:46.352Z,82.30
2017-09-19T01:14:13.842Z,82.30
2017-09-19T01:16:41.280Z,82.30
2017-09-19T01:19:09.673Z,82.40
2017-09-19T01:21:37.129Z,82.40
2017-09-19T01:24:04.584Z,82.40
2017-09-19T01:26:32.061Z,82.40
2017-09-19T01:28:59.525Z,82.50
2017-09-19T01:31:26.977Z,82.50
2017-09-19T01:33:54.476Z,82.60
2017-09-19T01:36:22.717Z,83.50
2017-09-19T01:38:50.168Z,82.70
2017-09-19T01:41:17.643Z,82.70
2017-09-19T01:43:45.099Z,82.80
2017-09-19T01:46:12.545Z,82.70
2017-09-19T01:48:40.772Z,82.80
2017-09-19T01:51:08.225Z,82.70
2017-09-19T01:53:35.701Z,82.60
2017-09-19T01:56:03.148Z,82.60
2017-09-19T01:58:30.620Z,82.70
2017-09-19T02:00:58.069Z,82.70
2017-09-19T02:03:25.531Z,82.70
2017-09-19T02:05:52.984Z,82.60
2017-09-19T02:08:20.453Z,82.50
2017-09-19T02:10:47.921Z,82.60
2017-09-19T02:13:15.376Z,82.50
2017-09-19T02:15:42.850Z,82.50
2017-09-19T02:18:10.406Z,82.70
2017-09-19T02:20:37.860Z,82.50
2017-09-19T02:23:05.330Z,82.50
2017-09-19T02:25:32.806Z,82.50
2017-09-19T02:28:00.357Z,82.50
2017-09-19T02:30:27.947Z,82.40
2017-09-19T02:32:55.407Z,82.40
2017-09-19T02:35:22.861Z,82.40
2017-09-19T02:37:50.321Z,82.50
2017-09-19T02:40:17.778Z,82.50
2017-09-19T02:42:45.348Z,82.60
2017-09-19T02:45:12.817Z,82.60
2017-09-19T02:47:40.260Z,82.60
2017-09-19T02:50:07.710Z,82.70
2017-09-19T02:52:35.193Z,82.70
2017-09-19T02:55:02.641Z,82.70
2017-09-19T02:57:30.117Z,82.70
2017-09-19T02:59:57.572Z,82.70
2017-09-19T03:02:25.036Z,82.70
2017-09-19T03:04:52.502Z,82.70
2017-09-19T03:07:19.979Z,82.70
2017-09-19T03:09:47.537Z,82.60
2017-09-19T03:12:14.985Z,82.50
2017-09-19T03:14:42.458Z,82.50
2017-09-19T03:17:09.913Z,82.50
2017-09-19T03:19:37.377Z,82.50
2017-09-19T03:22:04.870Z,82.50
2017-09-19T03:24:32.337Z,82.50
2017-09-19T03:26:59.795Z,82.60
2017-09-19T03:29:27.253Z,82.70
2017-09-19T03:31:54.714Z,82.70
2017-09-19T03:34:22.169Z,82.70
2017-09-19T03:36:49.648Z,82.70
2017-09-19T03:39:17.092Z,82.60
2017-09-19T03:41:44.548Z,82.70
2017-09-19T03:44:11.992Z,82.70
2017-09-19T03:46:39.440Z,82.70
2017-09-19T03:49:06.893Z,82.70
2017-09-19T03:51:35.107Z,82.70
2017-09-19T03:54:02.569Z,82.70
2017-09-19T03:56:30.020Z,82.70
2017-09-19T03:58:57.461Z,82.60
2017-09-19T04:01:24.912Z,82.70
2017-09-19T04:03:53.132Z,82.70
2017-09-19T04:06:20.589Z,82.70
2017-09-19T04:08:48.046Z,82.70
2017-09-19T04:11:15.497Z,82.70
2017-09-19T04:13:42.960Z,82.70
2017-09-19T04:16:10.419Z,82.70
2017-09-19T04:18:37.865Z,82.70
2017-09-19T04:21:06.097Z,82.70
2017-09-19T04:23:33.544Z,82.70
2017-09-19T04:26:01.015Z,82.70
2017-09-19T04:28:28.476Z,82.80
2017-09-19T04:30:55.949Z,82.90
2017-09-19T04:33:23.409Z,82.90
2017-09-19T04:35:50.869Z,82.90
2017-09-19T04:38:18.360Z,82.90
2017-09-19T04:40:45.781Z,83.00
2017-09-19T04:43:13.224Z,83.00
2017-09-19T04:45:40.690Z,83.10
2017-09-19T04:48:08.149Z,83.00
2017-09-19T04:50:36.382Z,83.10
2017-09-19T04:53:03.837Z,83.10
2017-09-19T04:55:31.293Z,83.10
2017-09-19T04:57:58.762Z,83.00
2017-09-19T05:00:26.213Z,83.10
2017-09-19T05:02:53.686Z,83.10
2017-09-19T05:05:21.154Z,83.10
2017-09-19T05:07:48.614Z,83.10
2017-09-19T05:10:16.063Z,83.00
2017-09-19T05:12:43.528Z,82.90
2017-09-19T05:15:10.993Z,83.00
2017-09-19T05:17:38.474Z,83.00
2017-09-19T05:20:05.930Z,83.00
2017-09-19T05:22:33.417Z,83.10
2017-09-19T05:25:00.893Z,83.00
2017-09-19T05:27:28.336Z,83.00
2017-09-19T05:29:55.799Z,83.10
2017-09-19T05:32:23.249Z,83.10
2017-09-19T05:34:50.706Z,83.10
2017-09-19T05:37:18.153Z,83.10
2017-09-19T05:39:45.624Z,83.10
2017-09-19T05:42:13.092Z,83.10
2017-09-19T05:44:40.562Z,83.20
2017-09-19T05:47:08.014Z,83.20
2017-09-19T05:49:35.469Z,83.20
2017-09-19T05:52:02.955Z,83.20
2017-09-19T05:54:30.436Z,83.10
2017-09-19T05:56:57.897Z,83.10
2017-09-19T05:59:25.340Z,83.10
2017-09-19T06:01:52.816Z,83.20
2017-09-19T06:04:20.281Z,83.30
2017-09-19T06:06:47.739Z,84.00
2017-09-19T06:09:35.036Z,83.30
2017-09-19T06:12:02.497Z,83.30
2017-09-19T06:14:29.954Z,83.30
2017-09-19T06:16:57.441Z,83.30
2017-09-19T06:19:24.896Z,83.30
2017-09-19T06:21:52.350Z,83.40
2017-09-19T06:24:19.817Z,83.40
2017-09-19T06:26:47.268Z,83.50
2017-09-19T06:29:14.716Z,83.50
2017-09-19T06:31:42.170Z,83.50
2017-09-19T06:34:09.632Z,83.40
2017-09-19T06:36:37.073Z,83.50
2017-09-19T06:39:05.317Z,83.60
2017-09-19T06:41:32.768Z,83.60
2017-09-19T06:44:00.218Z,83.60
2017-09-19T06:46:27.684Z,83.60
2017-09-19T06:48:55.140Z,83.60
2017-09-19T06:51:22.621Z,83.70
2017-09-19T06:53:50.076Z,83.60
2017-09-19T06:56:17.553Z,83.70
2017-09-19T06:58:45.035Z,83.70
2017-09-19T07:01:13.980Z,83.80
2017-09-19T07:03:41.456Z,83.80
2017-09-19T07:06:08.939Z,83.80
2017-09-19T07:08:36.393Z,83.80
2017-09-19T07:11:03.873Z,84.60
2017-09-19T07:13:31.329Z,83.90
2017-09-19T07:15:58.796Z,84.00
2017-09-19T07:18:26.253Z,83.90
2017-09-19T07:20:53.816Z,84.10
2017-09-19T07:23:21.290Z,84.10
2017-09-19T07:25:48.736Z,84.10
2017-09-19T07:28:16.205Z,84.10
2017-09-19T07:30:43.684Z,84.10
2017-09-19T07:33:11.242Z,84.10
2017-09-19T07:35:38.687Z,84.10
2017-09-19T07:38:06.149Z,84.10
2017-09-19T07:40:33.618Z,84.10
2017-09-19T07:43:01.435Z,84.20
2017-09-19T07:45:30.184Z,84.20
2017-09-19T07:47:57.757Z,84.20
2017-09-19T07:50:25.212Z,84.20
2017-09-19T07:52:52.677Z,84.20
2017-09-19T07:55:20.231Z,84.30
2017-09-19T07:57:47.701Z,84.30
2017-09-19T08:00:15.169Z,84.40
2017-09-19T08:02:42.605Z,84.40
2017-09-19T08:05:10.096Z,84.40
2017-09-19T08:07:38.235Z,84.40
2017-09-19T08:10:06.544Z,84.50
2017-09-19T08:12:34.001Z,84.40
2017-09-19T08:15:01.464Z,84.40
2017-09-19T08:17:28.932Z,84.50
2017-09-19T08:19:56.411Z,84.50
2017-09-19T08:22:23.865Z,84.60
2017-09-19T08:24:51.316Z,84.50
2017-09-19T08:27:18.776Z,84.50
2017-09-19T08:29:46.220Z,84.60
2017-09-19T08:32:13.681Z,84.60
2017-09-19T08:34:41.145Z,84.70
2017-09-19T08:37:08.592Z,84.60
2017-09-19T08:39:36.049Z,84.70
2017-09-19T08:42:04.271Z,84.80
2017-09-19T08:44:31.724Z,84.80
2017-09-19T08:46:59.177Z,84.90
2017-09-19T08:49:26.671Z,84.80
2017-09-19T08:51:54.167Z,84.90
2017-09-19T08:54:21.611Z,84.90
2017-09-19T08:56:49.585Z,84.90
2017-09-19T08:59:17.047Z,84.90
2017-09-19T09:01:44.513Z,84.90
2017-09-19T09:04:12.061Z,85.00
2017-09-19T09:06:39.517Z,85.00
2017-09-19T09:09:06.974Z,85.10
2017-09-19T09:11:34.432Z,85.10
2017-09-19T09:14:01.879Z,85.00
2017-09-19T09:16:29.362Z,85.10
2017-09-19T09:18:56.824Z,85.00
2017-09-19T09:21:24.288Z,85.00
2017-09-19T09:23:51.769Z,85.10
2017-09-19T09:26:19.845Z,85.00
2017-09-19T09:28:47.309Z,85.00
2017-09-19T09:31:14.872Z,85.00
2017-09-19T09:33:42.443Z,85.10
2017-09-19T09:36:09.901Z,85.00
2017-09-19T09:38:37.456Z,85.00
2017-09-19T09:41:04.930Z,84.90
2017-09-19T09:43:32.485Z,85.00
2017-09-19T09:45:59.953Z,85.00
2017-09-19T09:48:27.512Z,85.00
2017-09-19T09:50:54.968Z,84.90
2017-09-19T09:53:22.425Z,85.00
2017-09-19T09:55:49.880Z,84.90
2017-09-19T09:58:17.337Z,85.00
2017-09-19T10:00:44.824Z,85.00
2017-09-19T10:03:13.130Z,85.00
2017-09-19T10:05:41.400Z,85.00
2017-09-19T10:08:08.966Z,85.00
2017-09-19T10:10:36.425Z,85.00
2017-09-19T10:13:03.889Z,85.00
2017-09-19T10:15:31.364Z,85.00
2017-09-19T10:17:58.835Z,85.10
2017-09-19T10:20:26.290Z,85.20
2017-09-19T10:22:53.754Z,85.20
2017-09-19T10:25:21.199Z,85.10
2017-09-19T10:27:48.652Z,85.10
2017-09-19T10:30:16.104Z,85.00
2017-09-19T10:32:43.581Z,85.00
2017-09-19T10:35:11.037Z,84.80
2017-09-19T10:37:38.497Z,84.70
2017-09-19T10:40:05.963Z,84.70
2017-09-19T10:42:33.425Z,84.70
2017-09-19T10:45:00.892Z,84.70
2017-09-19T10:47:28.345Z,84.70
2017-09-19T10:49:55.809Z,84.70
2017-09-19T10:52:23.285Z,84.70
2017-09-19T10:54:50.768Z,84.70
2017-09-19T10:57:18.220Z,84.70
2017-09-19T10:59:45.668Z,84.70
2017-09-19T11:02:13.132Z,84.60
2017-09-19T11:04:40.588Z,84.70
2017-09-19T11:07:08.061Z,84.70
2017-09-19T11:09:35.521Z,84.70
2017-09-19T11:12:02.992Z,84.70
2017-09-19T11:14:30.556Z,84.80
2017-09-19T11:16:58.112Z,84.80
2017-09-19T11:19:25.598Z,85.00
2017-09-19T11:21:53.053Z,84.80
2017-09-19T11:24:20.519Z,84.90
2017-09-19T11:26:47.966Z,85.00
2017-09-19T11:29:15.407Z,85.00
2017-09-19T11:31:42.856Z,85.10
2017-09-19T11:34:10.320Z,85.10
2017-09-19T11:36:37.774Z,85.10
2017-09-19T11:39:05.233Z,85.10
2017-09-19T11:41:32.688Z,85.20
2017-09-19T11:44:00.929Z,85.10
2017-09-19T11:46:28.372Z,85.10
2017-09-19T11:48:55.856Z,85.10
2017-09-19T11:51:23.340Z,85.20
2017-09-19T11:53:50.802Z,85.20
2017-09-19T11:56:18.261Z,85.10
2017-09-19T11:58:45.714Z,85.10
2017-09-19T12:01:13.198Z,85.10
2017-09-19T12:03:40.660Z,85.10
2017-09-19T12:06:08.116Z,85.20
2017-09-19T12:08:35.578Z,85.20
2017-09-19T12:11:03.065Z,85.10
2017-09-19T12:13:31.289Z,85.00
2017-09-19T12:15:58.741Z,85.00
2017-09-19T12:18:26.209Z,85.00
2017-09-19T12:20:53.652Z,85.00
2017-09-19T12:23:21.117Z,85.00
2017-09-19T12:25:48.584Z,84.90
2017-09-19T12:28:16.056Z,84.90
2017-09-19T12:30:43.509Z,84.90
2017-09-19T12:33:10.968Z,84.60
2017-09-19T12:35:38.434Z,84.60
2017-09-19T12:38:05.901Z,84.70
2017-09-19T12:40:33.363Z,84.70
2017-09-19T12:43:00.825Z,84.70
2017-09-19T12:45:28.284Z,84.50
2017-09-19T12:47:55.745Z,84.50
2017-09-19T12:50:23.209Z,84.50
2017-09-19T12:52:50.673Z,84.40
2017-09-19T12:55:18.134Z,84.10
2017-09-19T12:57:45.593Z,84.10
2017-09-19T13:00:13.052Z,84.20
2017-09-19T13:02:40.504Z,83.90
2017-09-19T13:05:08.752Z,84.80
2017-09-19T13:07:36.217Z,84.10
2017-09-19T13:10:03.670Z,84.00
2017-09-19T13:12:31.125Z,83.80
2017-09-19T13:14:58.589Z,83.90
2017-09-19T13:17:26.062Z,83.80
2017-09-19T13:19:53.513Z,83.80
2017-09-19T13:22:20.984Z,83.70
2017-09-19T13:24:48.437Z,83.60
2017-09-19T13:27:15.905Z,83.70
2017-09-19T13:29:43.359Z,83.60
2017-09-19T13:32:22.876Z,83.50
2017-09-19T13:34:50.328Z,83.50
2017-09-19T13:37:17.794Z,83.50
2017-09-19T13:39:45.265Z,83.40
2017-09-19T13:42:12.733Z,83.50
2017-09-19T13:44:40.195Z,83.20
2017-09-19T13:47:07.645Z,82.20
2017-09-19T13:49:35.110Z,82.30
2017-09-19T13:52:02.556Z,82.20
2017-09-19T13:54:30.017Z,81.40
2017-09-19T13:56:57.481Z,81.60
2017-09-19T13:59:24.945Z,82.00
2017-09-19T14:01:52.396Z,82.20
2017-09-19T14:04:20.613Z,82.20
2017-09-19T14:06:48.092Z,82.20
2017-09-19T14:09:15.549Z,82.10
2017-09-19T14:11:43.834Z,82.10
2017-09-19T14:14:11.286Z,82.20
2017-09-19T14:16:38.753Z,82.20
2017-09-19T14:19:06.212Z,82.20
2017-09-19T14:21:33.677Z,82.10
2017-09-19T14:24:01.133Z,82.30
2017-09-19T14:26:28.612Z,82.30
2017-09-19T14:28:56.069Z,82.20
2017-09-19T14:31:23.525Z,82.10
2017-09-19T14:33:51.003Z,82.00
2017-09-19T14:36:18.449Z,82.00
2017-09-19T14:38:45.921Z,81.70
2017-09-19T14:41:13.408Z,81.70
2017-09-19T14:43:40.873Z,81.50
2017-09-19T14:46:08.329Z,81.40
2017-09-19T14:48:35.797Z,81.40
2017-09-19T14:51:03.262Z,81.30
2017-09-19T14:53:30.748Z,81.20
2017-09-19T14:55:58.960Z,81.20
2017-09-19T14:58:26.418Z,81.10
2017-09-19T15:00:53.881Z,81.20
2017-09-19T15:03:21.334Z,81.20
2017-09-19T15:05:48.792Z,81.10
2017-09-19T15:08:16.293Z,81.00
2017-09-19T15:10:43.757Z,81.00
2017-09-19T15:13:11.209Z,80.90
2017-09-19T15:15:38.705Z,80.90
2017-09-19T15:18:06.163Z,80.90
2017-09-19T15:20:33.636Z,80.50
2017-09-19T15:23:01.108Z,80.60
2017-09-19T15:25:28.576Z,80.70
2017-09-19T15:27:56.813Z,80.30
2017-09-19T15:30:24.268Z,80.30
2017-09-19T15:32:51.721Z,80.10
2017-09-19T15:35:19.180Z,80.00
2017-09-19T15:37:46.641Z,80.00
2017-09-19T15:40:14.089Z,79.70
2017-09-19T15:42:41.565Z,79.70
2017-09-19T15:45:09.029Z,79.30
2017-09-19T15:47:36.477Z,79.30
2017-09-19T15:50:03.943Z,79.30
2017-09-19T15:52:31.389Z,79.20
2017-09-19T15:54:59.664Z,79.10
2017-09-19T15:57:27.881Z,78.90
2017-09-19T15:59:55.341Z,78.90
2017-09-19T16:02:22.788Z,79.00
2017-09-19T16:04:50.253Z,78.60
2017-09-19T16:07:17.730Z,78.80
2017-09-19T16:09:45.188Z,78.70
2017-09-19T16:12:12.685Z,78.50
2017-09-19T16:14:40.134Z,78.50
2017-09-19T16:17:07.594Z,78.60
2017-09-19T16:19:35.072Z,78.60
2017-09-19T16:22:02.554Z,78.60
2017-09-19T16:24:29.989Z,78.60
2017-09-19T16:26:57.445Z,78.60
2017-09-19T16:29:24.906Z,78.50
2017-09-19T16:31:52.379Z,78.50
2017-09-19T16:34:19.836Z,78.50
2017-09-19T16:36:47.289Z,78.40
2017-09-19T16:39:14.753Z,78.40
2017-09-19T16:41:43.337Z,78.40
2017-09-19T16:44:10.797Z,78.40
2017-09-19T16:46:38.250Z,78.40
2017-09-19T16:49:05.720Z,78.40
2017-09-19T16:51:33.180Z,78.30
2017-09-19T16:54:00.690Z,78.40
2017-09-19T16:56:28.161Z,78.50
2017-09-19T16:58:55.614Z,78.40
2017-09-19T17:01:23.096Z,78.40
2017-09-19T17:03:50.549Z,78.30
2017-09-19T17:06:18.008Z,78.30
2017-09-19T17:08:45.464Z,78.30
2017-09-19T17:11:12.929Z,78.30
2017-09-19T17:13:40.367Z,78.30
2017-09-19T17:16:07.831Z,78.20
2017-09-19T17:18:35.281Z,78.30
2017-09-19T17:21:02.745Z,78.20
2017-09-19T17:23:30.209Z,78.30
2017-09-19T17:25:57.720Z,78.20
2017-09-19T17:28:25.177Z,78.00
2017-09-19T17:30:52.619Z,78.10
2017-09-19T17:33:20.081Z,77.90
2017-09-19T17:35:47.528Z,77.90
2017-09-19T17:38:15.009Z,77.90
2017-09-19T17:40:42.460Z,77.80
2017-09-19T17:43:09.941Z,77.80
2017-09-19T17:45:37.388Z,77.80
2017-09-19T17:48:04.844Z,77.80
2017-09-19T17:50:32.317Z,77.90
2017-09-19T17:52:59.772Z,77.90
2017-09-19T17:55:27.246Z,78.00
2017-09-19T17:57:54.697Z,78.00
2017-09-19T18:00:22.161Z,78.70
2017-09-19T18:02:49.613Z,78.10
2017-09-19T18:05:17.085Z,78.10
2017-09-19T18:07:44.549Z,78.20
2017-09-19T18:10:12.049Z,78.20
2017-09-19T18:12:39.504Z,79.10
2017-09-19T18:15:06.968Z,78.40
2017-09-19T18:17:34.432Z,78.30
2017-09-19T18:20:01.888Z,78.30
2017-09-19T18:22:29.356Z,78.20
2017-09-19T18:24:56.818Z,78.10
2017-09-19T18:27:24.285Z,78.00
2017-09-19T18:29:51.737Z,78.00
2017-09-19T18:32:19.200Z,78.20
2017-09-19T18:34:46.653Z,78.10
2017-09-19T18:37:14.110Z,78.70
2017-09-19T18:39:41.577Z,78.10
2017-09-19T18:42:09.028Z,78.00
2017-09-19T18:44:36.478Z,78.10
2017-09-19T18:47:03.928Z,78.10
2017-09-19T18:49:31.413Z,78.10
2017-09-19T18:51:58.889Z,78.10
2017-09-19T18:54:26.376Z,78.10
2017-09-19T18:56:53.850Z,78.20
2017-09-19T18:59:21.301Z,78.20
2017-09-19T19:01:48.748Z,78.30
2017-09-19T19:04:16.213Z,78.20
2017-09-19T19:06:43.672Z,78.10
2017-09-19T19:09:11.142Z,77.90
2017-09-19T19:11:38.613Z,77.90
2017-09-19T19:14:06.077Z,78.00
2017-09-19T19:16:33.541Z,78.00
2017-09-19T19:19:01.002Z,78.00
2017-09-19T19:21:28.490Z,78.00
2017-09-19T19:23:56.714Z,78.20
2017-09-19T19:26:24.172Z,78.20
2017-09-19T19:28:51.651Z,78.30
2017-09-19T19:31:19.116Z,78.50
2017-09-19T19:33:46.577Z,78.40
2017-09-19T19:36:14.032Z,78.40
2017-09-19T19:38:41.511Z,78.30
2017-09-19T19:41:08.974Z,78.10
2017-09-19T19:43:36.456Z,78.10
2017-09-19T19:46:03.917Z,78.10
2017-09-19T19:48:31.373Z,78.00
2017-09-19T19:50:58.832Z,78.10
2017-09-19T19:53:26.296Z,78.10
2017-09-19T19:55:53.784Z,78.10
2017-09-19T19:58:22.007Z,78.40
2017-09-19T20:00:49.481Z,78.30
2017-09-19T20:03:16.941Z,78.40
2017-09-19T20:05:44.405Z,78.40
2017-09-19T20:08:11.857Z,78.40
2017-09-19T20:10:39.312Z,78.30
2017-09-19T20:13:06.781Z,78.30
2017-09-19T20:15:34.237Z,78.30
2017-09-19T20:18:01.706Z,78.20
2017-09-19T20:20:29.193Z,78.20
2017-09-19T20:22:56.668Z,78.30
2017-09-19T20:25:24.113Z,78.30
2017-09-19T20:27:51.584Z,78.20
2017-09-19T20:30:19.051Z,78.10
2017-09-19T20:32:46.509Z,78.00
2017-09-19T20:35:13.984Z,77.90
2017-09-19T20:37:41.465Z,77.90
2017-09-19T20:40:09.698Z,77.80
2017-09-19T20:42:37.158Z,77.80
2017-09-19T20:45:04.625Z,77.80
2017-09-19T20:47:32.091Z,78.10
2017-09-19T20:49:59.576Z,78.00
2017-09-19T20:52:27.036Z,78.10
2017-09-19T20:54:54.513Z,78.20
2017-09-19T20:57:21.975Z,78.00
2017-09-19T20:59:49.427Z,78.00
2017-09-19T21:02:18.664Z,77.90
2017-09-19T21:04:51.752Z,78.00
2017-09-19T21:07:25.787Z,77.90
2017-09-19T21:09:58.989Z,77.90
2017-09-19T21:12:32.038Z,77.90
2017-09-19T21:15:06.072Z,78.60
2017-09-19T21:17:39.301Z,77.70
2017-09-19T21:20:06.288Z,77.70
2017-09-19T21:22:33.765Z,77.60
2017-09-19T21:25:01.989Z,77.80
2017-09-19T21:27:29.454Z,77.80
2017-09-19T21:29:56.908Z,77.80
2017-09-19T21:32:24.394Z,77.70
2017-09-19T21:34:51.932Z,77.70
2017-09-19T21:37:19.453Z,77.70
2017-09-19T21:39:47.826Z,77.90
2017-09-19T21:42:15.313Z,77.90
2017-09-19T21:44:43.569Z,78.10
2017-09-19T21:47:11.020Z,78.10
2017-09-19T21:49:38.498Z,78.00
2017-09-19T21:52:05.957Z,78.00
2017-09-19T21:54:33.422Z,78.10
2017-09-19T21:57:00.881Z,78.10
2017-09-19T21:59:28.349Z,78.10
2017-09-19T22:01:55.798Z,78.20
2017-09-19T22:04:23.254Z,78.20
2017-09-19T22:06:50.712Z,78.50
2017-09-19T22:09:18.197Z,78.60
2017-09-19T22:11:45.649Z,78.60
2017-09-19T22:14:13.108Z,78.50
2017-09-19T22:16:40.573Z,78.30
2017-09-19T22:19:08.044Z,78.40
2017-09-19T22:21:35.517Z,78.40
2017-09-19T22:24:02.968Z,78.50
2017-09-19T22:26:30.424Z,78.50
2017-09-19T22:28:57.882Z,78.40
2017-09-19T22:31:25.361Z,78.40
2017-09-19T22:33:52.811Z,78.30
2017-09-19T22:36:20.255Z,78.20
2017-09-19T22:38:47.721Z,78.20
2017-09-19T22:41:15.164Z,78.10
2017-09-19T22:43:42.643Z,78.10
2017-09-19T22:46:10.087Z,78.20
2017-09-19T22:48:37.557Z,78.20
2017-09-19T22:51:05.000Z,78.20
2017-09-19T22:53:32.481Z,78.20
2017-09-19T22:55:59.942Z,78.20
2017-09-19T22:58:27.393Z,78.30
2017-09-19T23:00:54.849Z,78.30
2017-09-19T23:03:22.304Z,78.50
2017-09-19T23:05:49.760Z,78.70
2017-09-19T23:08:17.976Z,78.70
2017-09-19T23:10:45.433Z,78.70
2017-09-19T23:13:12.893Z,78.50
2017-09-19T23:15:40.377Z,78.50
2017-09-19T23:18:07.829Z,78.50
2017-09-19T23:20:35.296Z,78.50
2017-09-19T23:23:02.756Z,78.60
2017-09-19T23:25:30.216Z,78.70
2017-09-19T23:27:57.684Z,78.80
2017-09-19T23:30:25.133Z,78.80
2017-09-19T23:32:52.597Z,79.80
2017-09-19T23:35:20.050Z,80.10
2017-09-19T23:37:47.526Z,80.30
2017-09-19T23:40:14.967Z,80.40
2017-09-19T23:42:42.410Z,80.20
2017-09-19T23:45:10.640Z,78.90
2017-09-19T23:47:38.090Z,78.90
2017-09-19T23:50:05.551Z,78.90
2017-09-19T23:52:33.009Z,78.70
2017-09-19T23:55:00.466Z,78.60
2017-09-19T23:57:27.931Z,78.60
2017-09-19T23:59:55.378Z,79.40
